< < Back
Terminal Aerodrome Forecast


Current Version              Previous Versions:   1  2  3  4  5  6  7  8  9  

Terminal Aerodrome Forecast

653
FTUS44 KMRX 301728
TAFTYS
TAF
KTYS 301728Z 3018/3118 VRB05KT P6SM SCT040 SCT250
     FM310000 03004KT P6SM SCT250
     FM311500 05005KT P6SM FEW250=



Latest METAR

983
SAUS80 KWBC 301900 RRA
MTRTYS
METAR KTYS 301853Z 02003KT 10SM BKN050 BKN250 30/17 A2998 RMK AO2 SLP142
T03000167


USA.gov is the U.S. government's official web portal to all federal, state and local government web resources and services.